createdAt,value
2023-05-20T00:04:57.776Z,11.45
2023-05-20T00:10:02.006Z,11.42
2023-05-20T00:15:09.041Z,11.38
2023-05-20T00:20:13.630Z,11.38
2023-05-20T00:25:17.654Z,11.39
2023-05-20T00:30:23.860Z,11.35
2023-05-20T00:35:28.272Z,11.39
2023-05-20T00:40:32.442Z,11.32
2023-05-20T00:45:38.791Z,11.29
2023-05-20T00:50:42.784Z,11.32
2023-05-20T00:55:47.065Z,11.35
2023-05-20T01:00:52.848Z,11.26
2023-05-20T01:05:57.111Z,11.34
2023-05-20T01:11:07.858Z,11.40
2023-05-20T01:16:14.447Z,11.34
2023-05-20T01:21:19.617Z,11.35
2023-05-20T01:26:27.446Z,11.36
2023-05-20T01:31:36.539Z,11.38
2023-05-20T01:36:41.835Z,11.35
2023-05-20T01:41:47.543Z,11.33
2023-05-20T01:46:52.105Z,11.37
2023-05-20T01:51:56.391Z,11.37
2023-05-20T01:57:03.217Z,11.42
2023-05-20T02:02:07.284Z,11.42
2023-05-20T02:07:12.659Z,11.45
2023-05-20T02:12:17.989Z,11.44
2023-05-20T02:17:22.160Z,11.50
2023-05-20T02:22:26.137Z,11.54
2023-05-20T02:27:31.641Z,11.55
2023-05-20T02:32:37.299Z,11.53
2023-05-20T02:37:41.817Z,11.53
2023-05-20T02:42:48.483Z,11.53
2023-05-20T02:47:53.144Z,11.54
2023-05-20T02:52:57.780Z,11.53
2023-05-20T02:58:04.137Z,11.55
2023-05-20T03:03:11.210Z,11.47
2023-05-20T03:08:15.373Z,11.49
2023-05-20T03:13:21.142Z,11.57
2023-05-20T03:18:25.434Z,11.63
2023-05-20T03:23:29.557Z,11.63
2023-05-20T03:28:35.148Z,11.62
2023-05-20T03:33:40.194Z,11.61
2023-05-20T03:38:44.903Z,11.65
2023-05-20T03:43:50.594Z,11.69
2023-05-20T03:48:54.854Z,11.67
2023-05-20T03:53:59.202Z,11.69
2023-05-20T03:59:04.824Z,11.73
2023-05-20T04:04:09.507Z,11.81
2023-05-20T04:09:13.927Z,11.83
2023-05-20T04:14:20.449Z,11.83
2023-05-20T04:19:28.700Z,11.85
2023-05-20T04:24:33.139Z,11.90
2023-05-20T04:29:38.928Z,11.96
2023-05-20T04:34:45.203Z,12.01
2023-05-20T04:39:51.138Z,12.10
2023-05-20T04:44:56.867Z,12.10
2023-05-20T04:50:00.811Z,12.07
2023-05-20T04:55:05.736Z,12.09
2023-05-20T05:00:13.375Z,12.07
2023-05-20T05:05:17.902Z,12.16
2023-05-20T05:10:23.383Z,12.25
2023-05-20T05:15:29.386Z,12.31
2023-05-20T05:20:33.775Z,12.39
2023-05-20T05:25:37.754Z,12.42
2023-05-20T05:30:43.500Z,12.43
2023-05-20T05:35:48.103Z,12.53
2023-05-20T05:40:52.376Z,12.61
2023-05-20T05:45:58.343Z,12.66
2023-05-20T05:51:02.773Z,12.80
2023-05-20T05:56:08.228Z,12.94
2023-05-20T06:01:14.076Z,13.06
2023-05-20T06:06:18.446Z,13.15
2023-05-20T06:11:24.175Z,13.12
2023-05-20T06:16:30.286Z,13.07
2023-05-20T06:21:37.090Z,13.22
2023-05-20T06:26:41.232Z,13.33
2023-05-20T06:31:47.130Z,13.45
2023-05-20T06:36:51.681Z,13.70
2023-05-20T06:41:56.188Z,13.93
2023-05-20T06:47:09.138Z,13.60
2023-05-20T06:52:14.151Z,13.82
2023-05-20T06:57:18.790Z,14.08
2023-05-20T07:02:24.248Z,14.17
2023-05-20T07:07:28.651Z,14.30
2023-05-20T07:12:36.160Z,14.33
2023-05-20T07:17:42.989Z,14.40
2023-05-20T07:22:48.756Z,14.49
2023-05-20T07:27:59.963Z,14.60
2023-05-20T07:33:05.819Z,14.83
2023-05-20T07:38:11.071Z,14.57
2023-05-20T07:43:16.234Z,14.61
2023-05-20T07:48:22.230Z,14.58
2023-05-20T07:53:26.188Z,14.86
2023-05-20T07:58:32.605Z,15.28
2023-05-20T08:03:38.246Z,15.75
2023-05-20T08:08:47.758Z,15.75
2023-05-20T08:13:57.522Z,15.77
2023-05-20T08:19:06.197Z,15.97
2023-05-20T08:24:10.423Z,15.71
2023-05-20T08:29:14.588Z,16.13
2023-05-20T08:34:20.179Z,16.51
2023-05-20T08:39:24.236Z,16.56
2023-05-20T08:44:29.051Z,16.65
2023-05-20T08:49:34.996Z,16.79
2023-05-20T08:54:44.653Z,16.63
2023-05-20T08:59:48.770Z,16.81
2023-05-20T09:04:54.290Z,16.86
2023-05-20T09:09:58.976Z,16.75
2023-05-20T09:15:03.123Z,16.67
2023-05-20T09:20:12.702Z,16.84
2023-05-20T09:25:21.614Z,16.87
2023-05-20T09:30:27.314Z,16.90
2023-05-20T09:35:38.204Z,17.17
2023-05-20T09:40:43.764Z,17.33
2023-05-20T09:45:48.511Z,17.82
2023-05-20T09:50:54.911Z,17.63
2023-05-20T09:55:59.480Z,18.12
2023-05-20T10:01:03.889Z,17.83
2023-05-20T10:06:28.412Z,18.26
2023-05-20T10:11:38.550Z,18.50
2023-05-20T10:16:46.595Z,18.54
2023-05-20T10:22:00.168Z,18.68
2023-05-20T10:27:06.576Z,18.86
2023-05-20T10:32:10.888Z,18.97
2023-05-20T10:37:27.880Z,19.23
2023-05-20T10:42:32.663Z,19.27
2023-05-20T10:47:37.188Z,19.83
2023-05-20T10:52:43.148Z,19.89
2023-05-20T10:57:47.199Z,20.46
2023-05-20T11:02:52.013Z,20.32
2023-05-20T11:08:08.091Z,21.06
2023-05-20T11:13:15.658Z,21.45
2023-05-20T11:18:19.733Z,21.33
2023-05-20T11:23:25.020Z,20.83
2023-05-20T11:28:29.085Z,20.57
2023-05-20T11:33:33.178Z,20.94
2023-05-20T11:38:38.527Z,21.21
2023-05-20T11:43:43.116Z,21.13
2023-05-20T11:48:53.022Z,21.13
2023-05-20T11:54:02.772Z,20.94
2023-05-20T11:59:07.613Z,22.21
2023-05-20T12:04:12.094Z,21.94
2023-05-20T12:09:17.719Z,22.13
2023-05-20T12:14:21.869Z,22.52
2023-05-20T12:19:26.113Z,21.92
2023-05-20T12:24:31.893Z,22.83
2023-05-20T12:29:35.742Z,23.16
2023-05-20T12:34:39.810Z,22.94
2023-05-20T12:39:45.098Z,23.27
2023-05-20T12:44:49.620Z,23.30
2023-05-20T12:49:53.517Z,23.40
2023-05-20T12:54:58.811Z,24.16
2023-05-20T13:00:02.919Z,24.42
2023-05-20T13:05:10.486Z,24.85
2023-05-20T13:10:17.232Z,24.72
2023-05-20T13:15:21.369Z,24.58
2023-05-20T13:20:25.292Z,25.33
2023-05-20T13:25:31.895Z,25.72
2023-05-20T13:30:36.561Z,25.78
2023-05-20T13:35:40.671Z,25.69
2023-05-20T13:40:46.492Z,26.61
2023-05-20T13:45:50.804Z,25.88
2023-05-20T13:50:54.712Z,25.90
2023-05-20T13:56:00.088Z,25.63
2023-05-20T14:01:04.681Z,26.89
2023-05-20T14:06:08.619Z,26.28
2023-05-20T14:11:14.385Z,26.42
2023-05-20T14:16:19.275Z,26.91
2023-05-20T14:21:23.472Z,26.32
2023-05-20T14:26:28.719Z,26.80
2023-05-20T14:31:32.729Z,26.17
2023-05-20T14:36:36.832Z,27.28
2023-05-20T14:41:42.291Z,26.98
2023-05-20T14:46:46.883Z,26.60
2023-05-20T14:51:51.127Z,27.23
2023-05-20T14:56:56.392Z,27.21
2023-05-20T15:02:00.752Z,27.25
2023-05-20T15:07:04.918Z,27.00
2023-05-20T15:12:11.019Z,26.99
2023-05-20T15:17:15.452Z,27.35
2023-05-20T15:22:19.515Z,27.45
2023-05-20T15:27:24.957Z,27.51
2023-05-20T15:32:29.327Z,27.60
2023-05-20T15:37:33.323Z,27.15
2023-05-20T15:42:38.776Z,26.65
2023-05-20T15:47:43.368Z,25.34
2023-05-20T15:52:47.563Z,24.12
2023-05-20T15:57:53.318Z,24.03
2023-05-20T16:02:57.632Z,23.78
2023-05-20T16:08:23.876Z,23.29
2023-05-20T16:13:29.387Z,22.99
2023-05-20T16:18:33.265Z,22.75
2023-05-20T16:23:37.395Z,22.70
2023-05-20T16:28:43.923Z,22.49
2023-05-20T16:33:48.313Z,22.39
2023-05-20T16:38:52.426Z,22.11
2023-05-20T16:43:57.726Z,21.94
2023-05-20T16:49:01.949Z,21.71
2023-05-20T16:54:05.893Z,21.69
2023-05-20T16:59:14.663Z,21.51
2023-05-20T17:04:19.131Z,21.39
2023-05-20T17:09:23.187Z,21.27
2023-05-20T17:14:28.432Z,21.19
2023-05-20T17:19:32.474Z,21.07
2023-05-20T17:24:37.542Z,21.09
2023-05-20T17:29:42.836Z,20.88
2023-05-20T17:34:46.940Z,20.86
2023-05-20T17:39:50.887Z,20.72
2023-05-20T17:44:56.500Z,20.55
2023-05-20T17:50:02.468Z,20.43
2023-05-20T17:55:08.144Z,20.17
2023-05-20T18:00:15.586Z,20.09
2023-05-20T18:05:28.399Z,19.81
2023-05-20T18:10:32.833Z,19.58
2023-05-20T18:15:39.391Z,19.40
2023-05-20T18:20:45.051Z,19.19
2023-05-20T18:25:48.966Z,18.97
2023-05-20T18:30:52.999Z,18.72
2023-05-20T18:35:58.354Z,18.55
2023-05-20T18:41:02.220Z,18.29
2023-05-20T18:46:06.587Z,18.18
2023-05-20T18:51:11.836Z,18.02
2023-05-20T18:56:16.178Z,18.05
2023-05-20T19:01:21.062Z,18.04
2023-05-20T19:06:26.681Z,18.07
2023-05-20T19:11:31.733Z,18.01
2023-05-20T19:16:36.518Z,17.89
2023-05-20T19:21:43.767Z,17.77
2023-05-20T19:26:47.686Z,17.71
2023-05-20T19:31:51.578Z,17.55
2023-05-20T19:36:57.625Z,17.40
2023-05-20T19:42:02.024Z,17.29
2023-05-20T19:47:08.153Z,17.15
2023-05-20T19:52:13.442Z,17.07
2023-05-20T19:57:17.399Z,16.99
2023-05-20T20:02:21.346Z,16.87
2023-05-20T20:07:27.373Z,16.74
2023-05-20T20:12:31.536Z,16.65
2023-05-20T20:17:37.357Z,16.51
2023-05-20T20:22:43.921Z,16.41
2023-05-20T20:27:48.656Z,16.25
2023-05-20T20:32:53.491Z,16.10
2023-05-20T20:38:00.042Z,15.99
2023-05-20T20:43:04.952Z,15.76
2023-05-20T20:48:09.054Z,15.69
2023-05-20T20:53:15.893Z,15.64
2023-05-20T20:58:20.049Z,15.59
2023-05-20T21:03:26.438Z,15.45
2023-05-20T21:08:31.973Z,15.36
2023-05-20T21:13:37.143Z,15.33
2023-05-20T21:18:43.194Z,15.26
2023-05-20T21:23:49.258Z,15.20
2023-05-20T21:28:53.325Z,15.09
2023-05-20T21:33:57.185Z,15.09
2023-05-20T21:39:02.430Z,15.05
2023-05-20T21:44:06.605Z,15.01
2023-05-20T21:49:10.740Z,14.95
2023-05-20T21:54:16.251Z,14.84
2023-05-20T21:59:20.155Z,14.80
2023-05-20T22:04:25.005Z,14.75
2023-05-20T22:09:30.481Z,14.67
2023-05-20T22:14:34.717Z,14.57
2023-05-20T22:19:40.204Z,14.47
2023-05-20T22:24:45.840Z,14.39
2023-05-20T22:29:50.818Z,14.32
2023-05-20T22:34:58.635Z,14.27
2023-05-20T22:40:05.009Z,14.14
2023-05-20T22:45:10.693Z,14.04
2023-05-20T22:50:14.650Z,13.99
2023-05-20T22:55:19.932Z,14.02
2023-05-20T23:00:23.925Z,13.94
2023-05-20T23:05:30.033Z,13.81
2023-05-20T23:10:35.630Z,13.67
2023-05-20T23:15:41.081Z,13.63
2023-05-20T23:20:45.812Z,13.63
2023-05-20T23:25:51.291Z,13.60
2023-05-20T23:30:57.014Z,13.64
2023-05-20T23:36:01.150Z,13.59
2023-05-20T23:41:06.838Z,13.54
2023-05-20T23:46:11.057Z,13.46
2023-05-20T23:51:16.397Z,13.49
2023-05-20T23:56:22.405Z,13.47
